createdAt,value
2023-02-24T00:01:24.867Z,7.75
2023-02-24T00:02:57.363Z,7.15
2023-02-24T00:04:33.903Z,7.18
2023-02-24T00:06:11.955Z,6.43
2023-02-24T00:07:45.445Z,7.10
2023-02-24T00:09:22.880Z,6.53
2023-02-24T00:10:57.276Z,7.15
2023-02-24T00:12:30.559Z,7.28
2023-02-24T00:14:07.358Z,7.03
2023-02-24T00:15:40.724Z,7.30
2023-02-24T00:17:15.264Z,7.40
2023-02-24T00:18:47.471Z,7.93
2023-02-24T00:20:21.039Z,6.70
2023-02-24T00:21:55.255Z,6.85
2023-02-24T00:23:28.530Z,8.38
2023-02-24T00:25:03.841Z,7.88
2023-02-24T00:26:36.512Z,7.70
2023-02-24T00:28:09.793Z,7.88
2023-02-24T00:29:47.321Z,7.93
2023-02-24T00:31:24.773Z,7.80
2023-02-24T00:33:01.154Z,7.60
2023-02-24T00:34:37.986Z,7.53
2023-02-24T00:36:14.609Z,6.60
2023-02-24T00:37:51.162Z,6.10
2023-02-24T00:39:30.420Z,6.00
2023-02-24T00:41:12.365Z,6.43
2023-02-24T00:42:44.541Z,6.53
2023-02-24T00:44:17.760Z,6.22
2023-02-24T00:45:51.532Z,5.40
2023-02-24T00:47:24.985Z,5.72
2023-02-24T00:48:57.219Z,6.00
2023-02-24T00:50:30.926Z,6.32
2023-02-24T00:52:06.461Z,6.43
2023-02-24T00:53:41.033Z,5.10
2023-02-24T00:55:15.050Z,5.20
2023-02-24T00:56:49.156Z,5.70
2023-02-24T00:58:22.704Z,5.97
2023-02-24T00:59:58.555Z,5.30
2023-02-24T01:01:35.001Z,5.15
2023-02-24T01:03:07.246Z,5.35
2023-02-24T01:04:40.982Z,6.45
2023-02-24T01:06:14.759Z,5.43
2023-02-24T01:07:47.933Z,4.68
2023-02-24T01:09:22.375Z,5.13
2023-02-24T01:11:19.752Z,5.53
2023-02-24T01:12:54.594Z,5.75
2023-02-24T01:14:30.076Z,6.40
2023-02-24T01:16:03.403Z,6.22
2023-02-24T01:17:38.271Z,5.57
2023-02-24T01:19:12.547Z,6.45
2023-02-24T01:20:48.190Z,6.93
2023-02-24T01:22:22.684Z,6.30
2023-02-24T01:23:56.015Z,6.05
2023-02-24T01:25:31.254Z,6.95
2023-02-24T01:27:04.122Z,6.20
2023-02-24T01:28:38.598Z,6.93
2023-02-24T01:30:15.771Z,6.35
2023-02-24T01:31:50.449Z,5.88
2023-02-24T01:33:24.437Z,6.22
2023-02-24T01:34:56.630Z,5.97
2023-02-24T01:36:31.109Z,5.85
2023-02-24T01:38:04.765Z,5.55
2023-02-24T01:39:37.249Z,6.07
2023-02-24T01:41:12.608Z,5.35
2023-02-24T01:42:47.609Z,5.00
2023-02-24T01:45:06.593Z,5.30
2023-02-24T01:46:43.149Z,5.18
2023-02-24T01:48:17.617Z,4.68
2023-02-24T01:49:55.350Z,5.13
2023-02-24T01:51:35.288Z,4.82
2023-02-24T01:53:09.887Z,3.45
2023-02-24T01:54:49.817Z,4.13
2023-02-24T01:56:24.577Z,4.38
2023-02-24T01:58:01.003Z,3.25
2023-02-24T01:59:35.542Z,3.70
2023-02-24T02:01:11.060Z,3.65
2023-02-24T02:03:00.589Z,3.72
2023-02-24T02:04:42.770Z,3.40
2023-02-24T02:06:18.202Z,3.55
2023-02-24T02:07:51.512Z,3.83
2023-02-24T02:09:26.410Z,3.45
2023-02-24T02:12:44.708Z,2.67
2023-02-24T02:14:22.001Z,2.78
2023-02-24T02:16:25.765Z,3.58
2023-02-24T02:20:16.470Z,2.45
2023-02-24T02:22:23.359Z,2.60
2023-02-24T02:24:15.712Z,2.53
2023-02-24T02:28:31.712Z,2.60
2023-02-24T02:31:02.905Z,3.10
2023-02-24T02:33:21.390Z,1.95
2023-02-24T02:34:58.540Z,2.33
2023-02-24T02:36:44.668Z,2.25
2023-02-24T02:38:27.309Z,2.95
2023-02-24T02:40:19.949Z,2.35
2023-02-24T02:42:02.084Z,2.67
2023-02-24T02:43:43.771Z,2.08
2023-02-24T02:45:25.275Z,2.30
2023-02-24T02:47:06.208Z,2.58
2023-02-24T02:48:50.553Z,2.38
2023-02-24T02:50:31.079Z,2.35
2023-02-24T02:52:15.365Z,2.15
2023-02-24T02:53:59.274Z,2.05
2023-02-24T02:55:41.830Z,2.42
2023-02-24T02:57:22.525Z,2.53
2023-02-24T02:59:00.012Z,2.45
2023-02-24T03:00:42.185Z,2.30
2023-02-24T03:02:17.613Z,2.40
2023-02-24T03:03:56.689Z,2.55
2023-02-24T03:05:46.416Z,2.83
2023-02-24T03:07:22.305Z,2.88
2023-02-24T03:09:11.259Z,2.70
2023-02-24T03:10:51.051Z,3.25
2023-02-24T03:12:30.763Z,2.90
2023-02-24T03:14:06.106Z,2.65
2023-02-24T03:15:44.721Z,3.30
2023-02-24T03:17:22.499Z,3.10
2023-02-24T03:19:03.698Z,2.92
2023-02-24T03:20:47.602Z,3.20
2023-02-24T03:22:28.424Z,2.80
2023-02-24T03:24:05.666Z,3.42
2023-02-24T03:25:49.254Z,3.92
2023-02-24T03:27:28.487Z,4.75
2023-02-24T03:29:11.089Z,5.28
2023-02-24T03:30:52.718Z,4.32
2023-02-24T03:32:33.093Z,5.03
2023-02-24T03:34:14.912Z,4.57
2023-02-24T03:35:51.623Z,5.13
2023-02-24T03:37:27.936Z,4.80
2023-02-24T03:39:05.314Z,6.22
2023-02-24T03:40:43.453Z,5.07
2023-02-24T03:42:22.872Z,5.80
2023-02-24T03:43:55.365Z,5.13
2023-02-24T03:45:29.272Z,5.50
2023-02-24T03:47:03.339Z,5.32
2023-02-24T03:48:45.123Z,4.85
2023-02-24T03:50:21.853Z,4.88
2023-02-24T03:52:21.587Z,4.65
2023-02-24T03:54:14.137Z,5.38
2023-02-24T03:56:03.418Z,4.43
2023-02-24T03:58:01.353Z,4.88
2023-02-24T03:59:53.816Z,4.75
2023-02-24T04:01:37.423Z,4.22
2023-02-24T04:03:27.435Z,4.63
2023-02-24T04:05:20.604Z,4.47
2023-02-24T04:07:15.280Z,4.63
2023-02-24T04:08:54.903Z,4.45
2023-02-24T04:10:35.000Z,4.63
2023-02-24T04:12:19.766Z,4.93
2023-02-24T04:14:07.880Z,4.70
2023-02-24T04:15:49.183Z,4.28
2023-02-24T04:17:46.416Z,4.93
2023-02-24T04:19:27.727Z,4.38
2023-02-24T04:21:06.393Z,4.40
2023-02-24T04:22:48.993Z,4.40
2023-02-24T04:24:31.481Z,4.07
2023-02-24T04:26:08.199Z,4.05
2023-02-24T04:27:45.385Z,4.32
2023-02-24T04:29:27.402Z,4.05
2023-02-24T04:31:10.300Z,3.70
2023-02-24T04:32:46.592Z,4.43
2023-02-24T04:34:20.340Z,4.22
2023-02-24T04:35:55.278Z,3.45
2023-02-24T04:37:33.894Z,3.22
2023-02-24T04:39:09.929Z,3.65
2023-02-24T04:40:43.610Z,3.30
2023-02-24T04:42:17.766Z,3.22
2023-02-24T04:43:52.170Z,3.05
2023-02-24T04:45:28.216Z,3.28
2023-02-24T04:47:00.639Z,3.15
2023-02-24T04:48:33.808Z,3.03
2023-02-24T04:50:10.803Z,2.75
2023-02-24T04:51:44.462Z,3.08
2023-02-24T04:53:18.773Z,2.33
2023-02-24T04:54:52.252Z,2.10
2023-02-24T04:56:25.327Z,2.20
2023-02-24T04:57:58.737Z,2.88
2023-02-24T04:59:32.059Z,2.95
2023-02-24T05:01:10.936Z,2.50
2023-02-24T05:02:44.236Z,3.05
2023-02-24T05:04:17.694Z,2.22
2023-02-24T05:05:56.617Z,2.30
2023-02-24T05:07:29.210Z,2.70
2023-02-24T05:09:14.191Z,2.45
2023-02-24T05:10:49.026Z,2.53
2023-02-24T05:12:22.248Z,2.72
2023-02-24T05:13:55.579Z,3.45
2023-02-24T05:15:32.005Z,2.33
2023-02-24T05:17:05.099Z,2.75
2023-02-24T05:18:38.658Z,2.80
2023-02-24T05:20:30.919Z,2.30
2023-02-24T05:23:41.071Z,2.28
2023-02-24T05:25:14.512Z,2.13
2023-02-24T05:26:49.391Z,2.33
2023-02-24T05:29:56.382Z,1.65
2023-02-24T05:31:32.004Z,2.22
2023-02-24T05:33:08.220Z,1.70
2023-02-24T05:34:42.600Z,2.20
2023-02-24T05:36:19.742Z,2.15
2023-02-24T05:37:52.888Z,2.60
2023-02-24T05:39:27.104Z,2.53
2023-02-24T05:41:08.323Z,2.20
2023-02-24T05:42:45.189Z,2.15
2023-02-24T05:44:23.261Z,2.20
2023-02-24T05:46:03.288Z,2.42
2023-02-24T05:47:37.097Z,2.58
2023-02-24T05:49:15.268Z,2.38
2023-02-24T05:50:55.176Z,2.08
2023-02-24T05:52:28.387Z,1.88
2023-02-24T05:54:04.342Z,1.80
2023-02-24T05:55:37.647Z,2.05
2023-02-24T05:57:14.649Z,2.15
2023-02-24T05:58:50.017Z,1.52
2023-02-24T06:00:25.832Z,1.70
2023-02-24T06:02:01.178Z,1.55
2023-02-24T06:03:35.573Z,1.48
2023-02-24T06:05:10.506Z,1.83
2023-02-24T06:06:42.841Z,2.35
2023-02-24T06:08:15.936Z,1.80
2023-02-24T06:09:53.703Z,2.03
2023-02-24T06:11:26.113Z,1.80
2023-02-24T06:13:00.660Z,1.90
2023-02-24T06:14:35.184Z,1.95
2023-02-24T06:16:12.771Z,2.10
2023-02-24T06:17:45.952Z,1.30
2023-02-24T06:19:20.587Z,1.65
2023-02-24T06:20:54.352Z,1.83
2023-02-24T06:22:28.422Z,2.35
2023-02-24T06:24:01.625Z,2.35
2023-02-24T06:25:35.380Z,2.03
2023-02-24T06:27:10.282Z,2.10
2023-02-24T06:28:43.623Z,2.67
2023-02-24T06:30:18.395Z,2.05
2023-02-24T06:31:51.652Z,1.60
2023-02-24T06:33:26.874Z,1.73
2023-02-24T06:36:33.124Z,1.50
2023-02-24T06:38:06.405Z,2.13
2023-02-24T06:39:39.896Z,2.25
2023-02-24T06:41:13.664Z,2.30
2023-02-24T06:42:47.947Z,2.63
2023-02-24T06:44:21.272Z,1.95
2023-02-24T06:45:55.874Z,2.47
2023-02-24T06:47:29.174Z,2.00
2023-02-24T06:49:02.860Z,2.05
2023-02-24T06:50:36.785Z,2.00
2023-02-24T06:52:18.294Z,2.38
2023-02-24T06:53:53.665Z,2.22
2023-02-24T06:55:27.379Z,2.20
2023-02-24T06:57:00.783Z,1.88
2023-02-24T06:58:34.961Z,2.30
2023-02-24T07:00:16.873Z,2.22
2023-02-24T07:01:53.841Z,1.90
2023-02-24T07:03:39.491Z,2.60
2023-02-24T07:05:14.716Z,1.88
2023-02-24T07:06:52.257Z,2.03
2023-02-24T07:08:28.191Z,2.25
2023-02-24T07:10:01.658Z,2.20
2023-02-24T07:11:36.802Z,1.98
2023-02-24T07:13:10.287Z,1.90
2023-02-24T07:14:43.900Z,1.98
2023-02-24T07:16:20.128Z,2.30
2023-02-24T07:17:56.150Z,3.00
2023-02-24T07:19:32.301Z,2.42
2023-02-24T07:21:11.436Z,2.50
2023-02-24T07:22:46.034Z,2.58
2023-02-24T07:24:25.784Z,2.40
2023-02-24T07:25:59.402Z,2.15
2023-02-24T07:27:32.508Z,2.10
2023-02-24T07:29:06.330Z,2.10
2023-02-24T07:30:41.440Z,2.40
2023-02-24T07:32:15.063Z,1.58
2023-02-24T07:33:51.123Z,2.15
2023-02-24T07:35:24.861Z,2.00
2023-02-24T07:36:58.706Z,1.98
2023-02-24T07:38:31.872Z,2.00
2023-02-24T07:40:08.176Z,1.77
2023-02-24T07:41:46.460Z,1.98
2023-02-24T07:43:19.792Z,2.10
2023-02-24T07:44:55.004Z,1.52
2023-02-24T07:46:32.539Z,2.10
2023-02-24T07:48:05.816Z,1.73
2023-02-24T07:49:40.988Z,1.52
2023-02-24T07:51:19.227Z,1.73
2023-02-24T07:52:52.659Z,1.67
2023-02-24T07:54:29.925Z,1.90
2023-02-24T07:56:10.633Z,1.85
2023-02-24T07:57:46.460Z,1.67
2023-02-24T07:59:22.142Z,1.90
2023-02-24T08:01:00.546Z,1.63
2023-02-24T08:02:34.718Z,1.75
2023-02-24T08:04:15.822Z,1.77
2023-02-24T08:05:50.282Z,1.83
2023-02-24T08:07:25.658Z,1.50
2023-02-24T08:08:59.391Z,1.60
2023-02-24T08:10:36.766Z,1.70
2023-02-24T08:12:11.553Z,1.48
2023-02-24T08:13:45.097Z,1.23
2023-02-24T08:15:23.863Z,2.20
2023-02-24T08:16:59.399Z,1.50
2023-02-24T08:18:37.259Z,1.23
2023-02-24T08:20:29.589Z,1.95
2023-02-24T08:23:53.205Z,1.25
2023-02-24T08:25:35.784Z,1.23
2023-02-24T08:27:09.343Z,1.80
2023-02-24T08:28:43.694Z,1.33
2023-02-24T08:30:23.686Z,1.65
2023-02-24T08:31:57.106Z,1.90
2023-02-24T08:33:31.211Z,1.85
2023-02-24T08:35:14.462Z,1.50
2023-02-24T08:36:55.713Z,1.40
2023-02-24T08:38:41.696Z,1.65
2023-02-24T08:40:37.936Z,2.10
2023-02-24T08:42:14.152Z,1.33
2023-02-24T08:43:49.221Z,1.77
2023-02-24T08:46:56.906Z,1.23
2023-02-24T08:48:37.299Z,1.60
2023-02-24T08:50:12.181Z,1.60
2023-02-24T08:51:47.988Z,1.63
2023-02-24T08:53:21.624Z,1.35
2023-02-24T08:54:59.381Z,1.60
2023-02-24T08:56:35.281Z,1.50
2023-02-24T08:58:11.089Z,1.35
2023-02-24T08:59:50.152Z,1.20
2023-02-24T09:01:27.701Z,2.00
2023-02-24T09:03:01.131Z,1.83
2023-02-24T09:04:34.476Z,1.40
2023-02-24T09:06:09.940Z,2.10
2023-02-24T09:07:43.622Z,1.27
2023-02-24T09:09:22.469Z,1.60
2023-02-24T09:10:57.145Z,1.45
2023-02-24T09:12:31.457Z,1.67
2023-02-24T09:14:04.968Z,1.73
2023-02-24T09:15:41.348Z,1.60
2023-02-24T09:17:20.775Z,1.65
2023-02-24T09:19:07.999Z,1.65
2023-02-24T09:21:13.701Z,1.73
2023-02-24T09:23:02.941Z,1.30
2023-02-24T09:24:36.228Z,1.40
2023-02-24T09:26:11.397Z,1.70
2023-02-24T09:27:47.951Z,2.13
2023-02-24T09:29:49.399Z,1.88
2023-02-24T09:31:24.874Z,1.40
2023-02-24T09:33:01.236Z,1.50
2023-02-24T09:34:36.390Z,1.45
2023-02-24T09:37:46.794Z,2.00
2023-02-24T09:39:20.019Z,1.75
2023-02-24T09:40:52.360Z,1.67
2023-02-24T09:42:34.055Z,2.22
2023-02-24T09:44:18.884Z,2.00
2023-02-24T09:46:14.251Z,1.98
2023-02-24T09:47:56.809Z,2.10
2023-02-24T09:49:46.545Z,2.50
2023-02-24T09:51:23.178Z,1.88
2023-02-24T09:53:13.870Z,2.83
2023-02-24T09:55:10.563Z,2.40
2023-02-24T09:57:01.127Z,1.80
2023-02-24T09:58:47.686Z,2.40
2023-02-24T10:00:33.406Z,2.00
2023-02-24T10:02:28.171Z,2.40
2023-02-24T10:04:20.627Z,1.90
2023-02-24T10:06:12.119Z,2.25
2023-02-24T10:07:45.645Z,2.35
2023-02-24T10:09:29.504Z,1.95
2023-02-24T10:11:07.984Z,1.88
2023-02-24T10:12:42.181Z,2.10
2023-02-24T10:14:19.406Z,1.65
2023-02-24T10:16:06.242Z,2.03
2023-02-24T10:17:40.533Z,1.73
2023-02-24T10:19:27.172Z,1.92
2023-02-24T10:21:15.478Z,2.28
2023-02-24T10:22:56.435Z,1.58
2023-02-24T10:24:38.229Z,1.90
2023-02-24T10:26:31.838Z,1.52
2023-02-24T10:28:23.557Z,1.88
2023-02-24T10:30:11.093Z,1.40
2023-02-24T10:31:57.621Z,1.95
2023-02-24T10:33:38.930Z,1.33
2023-02-24T10:35:17.962Z,1.30
2023-02-24T10:36:51.196Z,2.35
2023-02-24T10:38:28.525Z,1.48
2023-02-24T10:40:10.200Z,1.58
2023-02-24T10:41:48.043Z,1.35
2023-02-24T10:43:31.760Z,1.50
2023-02-24T10:45:19.389Z,1.30
2023-02-24T10:47:11.415Z,1.25
2023-02-24T10:49:00.617Z,1.40
2023-02-24T10:50:55.282Z,1.50
2023-02-24T10:53:10.885Z,1.30
2023-02-24T10:55:05.132Z,1.13
2023-02-24T10:56:44.567Z,1.35
2023-02-24T10:58:28.944Z,1.02
2023-02-24T11:00:20.329Z,1.35
2023-02-24T11:02:06.547Z,1.50
2023-02-24T11:04:00.866Z,1.45
2023-02-24T11:06:08.104Z,1.80
2023-02-24T11:07:53.386Z,1.77
2023-02-24T11:09:34.801Z,1.55
2023-02-24T11:11:25.345Z,1.67
2023-02-24T11:13:17.589Z,1.45
2023-02-24T11:15:13.362Z,1.48
2023-02-24T11:17:07.883Z,1.30
2023-02-24T11:18:50.227Z,1.20
2023-02-24T11:20:46.456Z,1.10
2023-02-24T11:22:26.233Z,1.77
2023-02-24T11:24:02.755Z,1.45
2023-02-24T11:25:40.348Z,1.02
2023-02-24T11:27:16.698Z,1.40
2023-02-24T11:29:17.420Z,1.10
2023-02-24T11:31:01.182Z,1.40
2023-02-24T11:32:55.233Z,1.30
2023-02-24T11:34:49.186Z,1.23
2023-02-24T11:36:37.140Z,1.50
2023-02-24T11:38:28.618Z,1.33
2023-02-24T11:40:09.389Z,1.17
2023-02-24T11:41:48.464Z,0.90
2023-02-24T11:43:29.722Z,1.50
2023-02-24T11:45:12.123Z,1.60
2023-02-24T11:46:51.279Z,1.73
2023-02-24T11:48:33.975Z,1.48
2023-02-24T11:50:32.224Z,2.00
2023-02-24T11:52:14.510Z,1.95
2023-02-24T11:53:52.232Z,1.77
2023-02-24T11:55:36.031Z,1.40
2023-02-24T11:57:20.878Z,2.00
2023-02-24T11:59:02.337Z,1.70
2023-02-24T12:00:42.341Z,1.60
2023-02-24T12:02:25.991Z,1.50
2023-02-24T12:04:16.327Z,1.98
2023-02-24T12:05:58.365Z,1.70
2023-02-24T12:07:37.543Z,1.73
2023-02-24T12:09:18.108Z,2.03
2023-02-24T12:10:59.488Z,2.17
2023-02-24T12:12:42.560Z,1.92
2023-02-24T12:14:29.033Z,2.15
2023-02-24T12:16:11.819Z,2.30
2023-02-24T12:17:58.020Z,1.98
2023-02-24T12:19:43.823Z,2.70
2023-02-24T12:21:25.226Z,2.20
2023-02-24T12:23:06.341Z,2.10
2023-02-24T12:26:24.187Z,2.22
2023-02-24T12:28:15.771Z,2.70
2023-02-24T12:30:06.277Z,2.75
2023-02-24T12:31:57.310Z,2.80
2023-02-24T12:33:51.303Z,2.80
2023-02-24T12:35:37.682Z,2.78
2023-02-24T12:37:43.395Z,2.72
2023-02-24T12:39:22.833Z,2.97
2023-02-24T12:41:14.359Z,2.70
2023-02-24T12:43:02.105Z,2.60
2023-02-24T12:44:49.645Z,2.65
2023-02-24T12:46:29.010Z,3.28
2023-02-24T12:48:20.360Z,2.40
2023-02-24T12:50:30.895Z,2.72
2023-02-24T12:52:19.212Z,2.45
2023-02-24T12:54:05.310Z,3.03
2023-02-24T12:55:56.318Z,2.88
2023-02-24T12:57:43.123Z,2.90
2023-02-24T12:59:23.207Z,3.05
2023-02-24T13:01:13.351Z,2.75
2023-02-24T13:03:01.260Z,3.15
2023-02-24T13:04:49.296Z,2.67
2023-02-24T13:06:40.935Z,2.95
2023-02-24T13:08:36.469Z,2.80
2023-02-24T13:10:29.550Z,3.28
2023-02-24T13:12:17.237Z,2.85
2023-02-24T13:14:04.686Z,3.15
2023-02-24T13:15:38.502Z,2.75
2023-02-24T13:17:23.045Z,3.20
2023-02-24T13:19:07.726Z,2.30
2023-02-24T13:20:42.796Z,2.55
2023-02-24T13:24:03.015Z,2.42
2023-02-24T13:25:38.644Z,2.42
2023-02-24T13:27:25.583Z,2.30
2023-02-24T13:29:03.455Z,2.28
2023-02-24T13:30:41.771Z,2.20
2023-02-24T13:32:31.543Z,2.15
2023-02-24T13:34:16.080Z,2.40
2023-02-24T13:35:53.256Z,2.00
2023-02-24T13:37:36.852Z,2.15
2023-02-24T13:39:27.081Z,1.77
2023-02-24T13:41:22.518Z,2.10
2023-02-24T13:43:04.893Z,2.40
2023-02-24T13:44:48.961Z,2.17
2023-02-24T13:46:22.595Z,2.08
2023-02-24T13:48:22.984Z,2.63
2023-02-24T13:50:19.865Z,3.10
2023-02-24T13:52:04.737Z,2.03
2023-02-24T13:54:05.710Z,2.28
2023-02-24T13:55:59.598Z,2.30
2023-02-24T13:58:06.206Z,2.22
2023-02-24T14:00:10.016Z,2.80
2023-02-24T14:01:52.283Z,2.42
2023-02-24T14:03:29.589Z,2.47
2023-02-24T14:05:13.292Z,3.72
2023-02-24T14:06:52.531Z,2.95
2023-02-24T14:08:38.996Z,2.30
2023-02-24T14:10:20.847Z,5.53
2023-02-24T14:12:01.228Z,5.18
2023-02-24T14:13:36.695Z,2.58
2023-02-24T14:15:19.176Z,2.47
2023-02-24T14:16:52.915Z,3.00
2023-02-24T14:18:29.825Z,2.20
2023-02-24T14:20:20.150Z,2.40
2023-02-24T14:21:56.799Z,2.17
2023-02-24T14:23:32.648Z,2.17
2023-02-24T14:25:09.013Z,4.00
2023-02-24T14:26:46.787Z,6.07
2023-02-24T14:28:25.806Z,3.88
2023-02-24T14:30:00.447Z,2.78
2023-02-24T14:31:34.240Z,2.17
2023-02-24T14:33:21.087Z,2.20
2023-02-24T14:36:33.931Z,1.90
2023-02-24T14:38:09.393Z,2.15
2023-02-24T14:39:52.950Z,2.08
2023-02-24T14:41:28.482Z,1.70
2023-02-24T14:43:03.629Z,5.68
2023-02-24T14:44:48.596Z,2.65
2023-02-24T14:46:24.317Z,2.35
2023-02-24T14:47:58.637Z,7.43
2023-02-24T14:49:35.432Z,2.55
2023-02-24T14:51:13.502Z,3.15
2023-02-24T14:52:51.698Z,3.22
2023-02-24T14:54:44.650Z,2.15
2023-02-24T14:56:20.330Z,8.05
2023-02-24T14:58:01.398Z,3.05
2023-02-24T15:01:35.721Z,2.00
2023-02-24T15:03:19.154Z,5.88
2023-02-24T15:04:57.734Z,2.42
2023-02-24T15:06:40.633Z,1.92
2023-02-24T15:08:32.521Z,5.22
2023-02-24T15:10:08.347Z,5.00
2023-02-24T15:11:41.972Z,4.30
2023-02-24T15:13:27.623Z,2.60
2023-02-24T15:15:08.127Z,2.20
2023-02-24T15:16:47.754Z,1.70
2023-02-24T15:18:28.267Z,1.73
2023-02-24T15:20:01.930Z,1.70
2023-02-24T15:21:43.296Z,1.80
2023-02-24T15:23:33.938Z,1.90
2023-02-24T15:25:25.853Z,1.30
2023-02-24T15:27:20.449Z,1.70
2023-02-24T15:29:02.848Z,2.28
2023-02-24T15:30:40.335Z,1.83
2023-02-24T15:32:26.995Z,1.60
2023-02-24T15:34:05.089Z,1.60
2023-02-24T15:35:47.742Z,2.03
2023-02-24T15:37:26.571Z,1.50
2023-02-24T15:39:04.829Z,2.13
2023-02-24T15:40:38.273Z,1.80
2023-02-24T15:42:28.173Z,1.90
2023-02-24T15:44:01.839Z,1.83
2023-02-24T15:45:37.797Z,2.28
2023-02-24T15:47:24.524Z,3.70
2023-02-24T15:49:02.783Z,2.28
2023-02-24T15:50:38.912Z,2.28
2023-02-24T15:52:12.665Z,2.55
2023-02-24T15:53:46.010Z,3.47
2023-02-24T15:55:21.730Z,2.50
2023-02-24T15:56:57.224Z,2.42
2023-02-24T15:58:30.684Z,2.70
2023-02-24T16:00:16.204Z,2.80
2023-02-24T16:01:52.660Z,2.70
2023-02-24T16:03:47.073Z,3.47
2023-02-24T16:05:36.428Z,3.10
2023-02-24T16:07:33.581Z,2.85
2023-02-24T16:09:20.569Z,3.10
2023-02-24T16:11:06.177Z,3.25
2023-02-24T16:13:14.506Z,3.80
2023-02-24T16:15:12.672Z,3.83
2023-02-24T16:17:08.136Z,3.28
2023-02-24T16:19:05.987Z,10.18
2023-02-24T16:20:54.694Z,4.40
2023-02-24T16:22:33.777Z,3.70
2023-02-24T16:24:15.866Z,5.93
2023-02-24T16:26:02.178Z,5.03
2023-02-24T16:27:52.913Z,4.00
2023-02-24T16:29:30.189Z,4.30
2023-02-24T16:31:04.947Z,3.80
2023-02-24T16:32:38.915Z,4.80
2023-02-24T16:34:17.287Z,4.50
2023-02-24T16:35:54.863Z,3.45
2023-02-24T16:37:31.002Z,4.13
2023-02-24T16:39:06.051Z,3.42
2023-02-24T16:40:40.045Z,3.72
2023-02-24T16:42:14.562Z,3.33
2023-02-24T16:43:48.505Z,3.03
2023-02-24T16:45:26.788Z,4.07
2023-02-24T16:47:00.964Z,3.67
2023-02-24T16:48:42.557Z,4.88
2023-02-24T16:50:24.692Z,3.05
2023-02-24T16:51:58.563Z,9.43
2023-02-24T16:53:33.304Z,6.97
2023-02-24T16:55:11.739Z,15.55
2023-02-24T16:56:46.609Z,9.25
2023-02-24T16:58:22.990Z,7.60
2023-02-24T16:59:56.711Z,6.55
2023-02-24T17:01:31.306Z,6.88
2023-02-24T17:03:17.929Z,4.97
2023-02-24T17:04:52.473Z,4.75
2023-02-24T17:06:29.353Z,4.68
2023-02-24T17:08:04.184Z,4.20
2023-02-24T17:09:39.251Z,5.03
2023-02-24T17:11:19.348Z,4.57
2023-02-24T17:12:56.748Z,4.47
2023-02-24T17:14:30.987Z,3.95
2023-02-24T17:16:05.283Z,4.32
2023-02-24T17:17:39.312Z,4.13
2023-02-24T17:19:13.435Z,4.18
2023-02-24T17:20:47.493Z,3.60
2023-02-24T17:22:23.281Z,4.05
2023-02-24T17:23:57.132Z,4.03
2023-02-24T17:25:33.396Z,3.83
2023-02-24T17:27:07.971Z,4.55
2023-02-24T17:28:42.077Z,3.80
2023-02-24T17:30:21.346Z,4.38
2023-02-24T17:31:55.373Z,3.80
2023-02-24T17:33:29.298Z,4.35
2023-02-24T17:35:03.244Z,4.68
2023-02-24T17:36:37.264Z,3.80
2023-02-24T17:38:14.538Z,4.35
2023-02-24T17:39:48.408Z,4.68
2023-02-24T17:41:22.310Z,5.05
2023-02-24T17:42:56.121Z,4.53
2023-02-24T17:44:30.257Z,4.22
2023-02-24T17:46:07.147Z,5.15
2023-02-24T17:47:42.646Z,4.93
2023-02-24T17:49:16.621Z,5.05
2023-02-24T17:50:52.110Z,4.70
2023-02-24T17:52:26.081Z,5.20
2023-02-24T17:54:01.434Z,4.85
2023-02-24T17:55:35.334Z,4.90
2023-02-24T17:57:09.490Z,4.18
2023-02-24T17:58:43.236Z,3.97
2023-02-24T18:00:18.003Z,6.18
2023-02-24T18:01:52.472Z,5.07
2023-02-24T18:03:26.615Z,6.15
2023-02-24T18:05:02.187Z,6.22
2023-02-24T18:06:36.082Z,6.30
2023-02-24T18:08:10.076Z,5.68
2023-02-24T18:09:45.555Z,5.03
2023-02-24T18:11:21.313Z,3.88
2023-02-24T18:12:55.052Z,4.63
2023-02-24T18:14:28.676Z,4.63
2023-02-24T18:16:02.177Z,4.05
2023-02-24T18:17:35.824Z,4.78
2023-02-24T18:19:09.346Z,4.88
2023-02-24T18:20:43.535Z,5.55
2023-02-24T18:22:16.720Z,4.43
2023-02-24T18:23:50.413Z,5.70
2023-02-24T18:25:25.247Z,5.18
2023-02-24T18:26:59.134Z,4.30
2023-02-24T18:28:33.837Z,4.40
2023-02-24T18:30:12.942Z,4.03
2023-02-24T18:31:46.487Z,3.80
2023-02-24T18:33:20.085Z,3.83
2023-02-24T18:34:53.472Z,4.90
2023-02-24T18:36:27.789Z,3.63
2023-02-24T18:38:01.168Z,4.10
2023-02-24T18:39:34.536Z,3.75
2023-02-24T18:41:12.335Z,3.90
2023-02-24T18:42:45.567Z,2.95
2023-02-24T18:44:19.033Z,3.22
2023-02-24T18:45:57.692Z,3.00
2023-02-24T18:47:33.489Z,2.45
2023-02-24T18:49:08.867Z,2.40
2023-02-24T18:50:42.406Z,1.60
2023-02-24T18:52:15.513Z,1.48
2023-02-24T18:53:52.411Z,1.50
2023-02-24T18:55:26.270Z,1.20
2023-02-24T18:57:00.937Z,1.40
2023-02-24T18:58:34.730Z,0.95
2023-02-24T19:00:12.080Z,1.02
2023-02-24T19:01:48.757Z,0.90
2023-02-24T19:03:22.148Z,0.80
2023-02-24T19:04:55.320Z,1.40
2023-02-24T19:06:30.721Z,1.10
2023-02-24T19:08:04.108Z,1.45
2023-02-24T19:09:37.472Z,1.60
2023-02-24T19:11:13.266Z,1.10
2023-02-24T19:12:50.770Z,1.30
2023-02-24T19:14:23.939Z,1.23
2023-02-24T19:16:00.567Z,1.25
2023-02-24T19:17:33.832Z,0.95
2023-02-24T19:19:07.388Z,0.85
2023-02-24T19:20:43.815Z,1.80
2023-02-24T19:22:17.265Z,2.45
2023-02-24T19:23:50.709Z,2.17
2023-02-24T19:25:24.069Z,3.05
2023-02-24T19:26:57.277Z,2.80
2023-02-24T19:28:32.301Z,2.00
2023-02-24T19:30:07.949Z,7.50
2023-02-24T19:31:41.821Z,2.45
2023-02-24T19:33:15.223Z,3.30
2023-02-24T19:34:48.838Z,2.58
2023-02-24T19:36:23.921Z,3.17
2023-02-24T19:37:57.345Z,1.88
2023-02-24T19:39:30.573Z,1.83
2023-02-24T19:41:04.279Z,2.13
2023-02-24T19:42:37.532Z,1.33
2023-02-24T19:44:12.277Z,1.60
2023-02-24T19:45:48.483Z,1.38
2023-02-24T19:47:22.007Z,1.85
2023-02-24T19:48:57.859Z,1.70
2023-02-24T19:50:31.176Z,1.30
2023-02-24T19:52:04.651Z,1.70
2023-02-24T19:53:37.183Z,1.88
2023-02-24T19:55:12.238Z,1.75
2023-02-24T19:58:18.893Z,2.30
2023-02-24T19:59:53.972Z,1.60
2023-02-24T20:01:28.940Z,1.52
2023-02-24T20:03:02.307Z,1.52
2023-02-24T20:04:36.144Z,1.50
2023-02-24T20:06:18.779Z,1.40
2023-02-24T20:07:52.160Z,1.60
2023-02-24T20:09:26.909Z,1.50
2023-02-24T20:11:03.592Z,1.27
2023-02-24T20:12:37.557Z,1.50
2023-02-24T20:14:12.926Z,1.50
2023-02-24T20:15:47.820Z,1.13
2023-02-24T20:17:22.060Z,1.70
2023-02-24T20:18:56.390Z,1.50
2023-02-24T20:20:30.427Z,1.30
2023-02-24T20:22:04.627Z,1.40
2023-02-24T20:23:38.110Z,1.38
2023-02-24T20:25:12.563Z,1.83
2023-02-24T20:26:49.782Z,1.30
2023-02-24T20:28:23.761Z,1.27
2023-02-24T20:29:58.359Z,1.50
2023-02-24T20:31:33.972Z,1.38
2023-02-24T20:33:07.381Z,1.77
2023-02-24T20:34:41.214Z,1.60
2023-02-24T20:36:18.347Z,2.05
2023-02-24T20:37:51.866Z,2.72
2023-02-24T20:39:25.206Z,2.20
2023-02-24T20:41:00.513Z,2.70
2023-02-24T20:42:33.974Z,1.65
2023-02-24T20:44:08.142Z,2.00
2023-02-24T20:45:41.671Z,2.20
2023-02-24T20:47:19.032Z,2.05
2023-02-24T20:48:53.366Z,2.63
2023-02-24T20:50:26.852Z,2.10
2023-02-24T20:52:00.255Z,3.10
2023-02-24T20:53:35.328Z,3.20
2023-02-24T20:55:11.794Z,2.65
2023-02-24T20:56:47.982Z,2.53
2023-02-24T20:58:21.410Z,1.67
2023-02-24T21:00:03.499Z,1.95
2023-02-24T21:01:39.258Z,2.63
2023-02-24T21:03:14.092Z,2.50
2023-02-24T21:04:47.771Z,2.53
2023-02-24T21:06:21.362Z,2.38
2023-02-24T21:07:55.398Z,2.45
2023-02-24T21:09:29.388Z,2.15
2023-02-24T21:11:02.849Z,2.47
2023-02-24T21:12:36.376Z,2.13
2023-02-24T21:14:14.952Z,2.60
2023-02-24T21:15:52.066Z,1.98
2023-02-24T21:17:29.201Z,2.70
2023-02-24T21:19:05.137Z,2.42
2023-02-24T21:20:38.297Z,2.75
2023-02-24T21:22:11.716Z,3.08
2023-02-24T21:23:45.582Z,2.28
2023-02-24T21:25:19.599Z,2.08
2023-02-24T21:26:53.022Z,2.88
2023-02-24T21:28:25.788Z,2.40
2023-02-24T21:29:59.438Z,2.17
2023-02-24T21:31:33.054Z,1.88
2023-02-24T21:33:05.324Z,2.17
2023-02-24T21:34:40.045Z,2.70
2023-02-24T21:36:20.894Z,2.83
2023-02-24T21:37:53.726Z,2.65
2023-02-24T21:39:27.806Z,2.55
2023-02-24T21:41:01.473Z,2.00
2023-02-24T21:42:34.657Z,2.10
2023-02-24T21:44:08.924Z,3.78
2023-02-24T21:45:41.273Z,3.15
2023-02-24T21:47:14.667Z,3.10
2023-02-24T21:48:48.076Z,2.35
2023-02-24T21:50:23.836Z,7.78
2023-02-24T21:51:57.004Z,4.97
2023-02-24T21:53:32.618Z,4.38
2023-02-24T21:55:08.810Z,3.17
2023-02-24T21:56:42.561Z,3.50
2023-02-24T21:58:17.260Z,2.92
2023-02-24T21:59:50.689Z,2.58
2023-02-24T22:01:27.174Z,2.70
2023-02-24T22:03:00.794Z,3.78
2023-02-24T22:04:34.637Z,3.08
2023-02-24T22:06:10.939Z,2.60
2023-02-24T22:07:45.611Z,3.58
2023-02-24T22:09:20.093Z,3.90
2023-02-24T22:11:02.014Z,2.42
2023-02-24T22:12:35.685Z,2.30
2023-02-24T22:14:10.363Z,2.80
2023-02-24T22:15:43.720Z,2.10
2023-02-24T22:17:17.016Z,1.45
2023-02-24T22:18:52.958Z,13.18
2023-02-24T22:20:26.442Z,3.72
2023-02-24T22:22:01.627Z,2.78
2023-02-24T22:23:34.929Z,2.08